AAY1017 KEYW-KPIE
Flight info
| Callsign | AAY1017 |
|---|---|
| Flight time | 0h 46m |
| Altitude | 22000 |
| Route | BUFTT1 GUFFS FERAL BLFRG3 |
| Aircraft | A320/M-SDE3FGHIRWY/LB1 |
Departure
| Time | 2026-04-16 22:59 |
|---|---|
| Airport | Key West International Airport (KEYW) |
Arrival
| Time | 2026-04-16 23:46 |
|---|---|
| Airport | St. Petersburg Clearwater International Airport (KPIE) |
| Time | Latitude | Longitude | Altitude | Speed | Heading |
|---|---|---|---|---|---|
| 2026-04-16 22:41 | 24.55426 | -81.75567 | 16 ft | 0 kts | 180° |
| 2026-04-16 22:53 | 24.55439 | -81.75566 | 16 ft | 2 kts | 177° |
| 2026-04-16 22:53 | 24.55455 | -81.75565 | 17 ft | 2 kts | 200° |
| 2026-04-16 22:53 | 24.55465 | -81.75559 | 18 ft | 0 kts | 265° |
| 2026-04-16 22:55 | 24.55465 | -81.75561 | 16 ft | 2 kts | 265° |
| 2026-04-16 22:56 | 24.55503 | -81.75580 | 17 ft | 12 kts | 8° |
| 2026-04-16 22:56 | 24.55530 | -81.75635 | 16 ft | 8 kts | 276° |
| 2026-04-16 22:56 | 24.55529 | -81.75726 | 16 ft | 24 kts | 268° |
| 2026-04-16 22:56 | 24.55526 | -81.75939 | 12 ft | 29 kts | 269° |
| 2026-04-16 22:57 | 24.55524 | -81.76170 | 9 ft | 32 kts | 269° |
| 2026-04-16 22:57 | 24.55524 | -81.76416 | 8 ft | 33 kts | 270° |
| 2026-04-16 22:57 | 24.55520 | -81.76599 | 8 ft | 17 kts | 268° |
| 2026-04-16 22:57 | 24.55524 | -81.76645 | 9 ft | 0 kts | 308° |
| 2026-04-16 22:58 | 24.55541 | -81.76661 | 10 ft | 18 kts | 325° |
| 2026-04-16 22:58 | 24.55601 | -81.76568 | 9 ft | 35 kts | 89° |
| 2026-04-16 22:59 | 24.55614 | -81.75954 | 13 ft | 125 kts | 89° |
| 2026-04-16 22:59 | 24.55628 | -81.74809 | 422 ft | 164 kts | 90° |
| 2026-04-16 22:59 | 24.55754 | -81.73490 | 1307 ft | 182 kts | 69° |
| 2026-04-16 22:59 | 24.56485 | -81.72333 | 2185 ft | 188 kts | 41° |
| 2026-04-16 23:00 | 24.57747 | -81.71826 | 2777 ft | 209 kts | 9° |
| 2026-04-16 23:00 | 24.59292 | -81.71841 | 3186 ft | 234 kts | 0° |
| 2026-04-16 23:00 | 24.60988 | -81.71976 | 3754 ft | 255 kts | 360° |
| 2026-04-16 23:00 | 24.62788 | -81.72088 | 4609 ft | 263 kts | 1° |
| 2026-04-16 23:01 | 24.64634 | -81.72138 | 5568 ft | 268 kts | 3° |
| 2026-04-16 23:01 | 24.66532 | -81.72120 | 6439 ft | 276 kts | 4° |
| 2026-04-16 23:01 | 24.68471 | -81.72052 | 7233 ft | 283 kts | 5° |
| 2026-04-16 23:01 | 24.70442 | -81.71861 | 8079 ft | 285 kts | 15° |
| 2026-04-16 23:02 | 24.72298 | -81.71124 | 8934 ft | 285 kts | 31° |
| 2026-04-16 23:02 | 24.73890 | -81.69841 | 9810 ft | 284 kts | 47° |
| 2026-04-16 23:02 | 24.75264 | -81.68224 | 10337 ft | 300 kts | 49° |
| 2026-04-16 23:02 | 24.76739 | -81.66482 | 10670 ft | 320 kts | 49° |
| 2026-04-16 23:03 | 24.78284 | -81.64673 | 11312 ft | 327 kts | 48° |
| 2026-04-16 23:03 | 24.79857 | -81.62844 | 12060 ft | 331 kts | 47° |
| 2026-04-16 23:03 | 24.81453 | -81.60998 | 12809 ft | 335 kts | 46° |
| 2026-04-16 23:03 | 24.83264 | -81.59361 | 13533 ft | 341 kts | 34° |
| 2026-04-16 23:04 | 24.85392 | -81.58186 | 14220 ft | 346 kts | 21° |
| 2026-04-16 23:04 | 24.87689 | -81.57354 | 14891 ft | 349 kts | 19° |
| 2026-04-16 23:04 | 24.90010 | -81.56524 | 15568 ft | 352 kts | 19° |
| 2026-04-16 23:04 | 24.92313 | -81.55699 | 16207 ft | 355 kts | 19° |
| 2026-04-16 23:05 | 24.94670 | -81.54851 | 16863 ft | 358 kts | 19° |
| 2026-04-16 23:05 | 24.97049 | -81.53989 | 17505 ft | 362 kts | 19° |
| 2026-04-16 23:05 | 24.99446 | -81.53116 | 18152 ft | 365 kts | 19° |
| 2026-04-16 23:05 | 25.01873 | -81.52234 | 18735 ft | 369 kts | 19° |
| 2026-04-16 23:06 | 25.04323 | -81.51345 | 19286 ft | 372 kts | 19° |
| 2026-04-16 23:06 | 25.06792 | -81.50450 | 19832 ft | 376 kts | 19° |
| 2026-04-16 23:06 | 25.09288 | -81.49546 | 20377 ft | 379 kts | 19° |
| 2026-04-16 23:06 | 25.11812 | -81.48631 | 20925 ft | 383 kts | 19° |
| 2026-04-16 23:07 | 25.14352 | -81.47712 | 21464 ft | 387 kts | 19° |
| 2026-04-16 23:07 | 25.16924 | -81.46782 | 21945 ft | 391 kts | 19° |
| 2026-04-16 23:07 | 25.19514 | -81.45847 | 22078 ft | 390 kts | 19° |
| 2026-04-16 23:07 | 25.22043 | -81.44934 | 22114 ft | 383 kts | 19° |
| 2026-04-16 23:08 | 25.24632 | -81.43995 | 22110 ft | 397 kts | 19° |
| 2026-04-16 23:08 | 25.27274 | -81.43032 | 22103 ft | 402 kts | 19° |
| 2026-04-16 23:08 | 25.29930 | -81.42062 | 22113 ft | 403 kts | 19° |
| 2026-04-16 23:08 | 25.32594 | -81.41090 | 22112 ft | 403 kts | 19° |
| 2026-04-16 23:09 | 25.35257 | -81.40122 | 22103 ft | 403 kts | 19° |
| 2026-04-16 23:09 | 25.37924 | -81.39153 | 22100 ft | 403 kts | 19° |
| 2026-04-16 23:09 | 25.40589 | -81.38188 | 22110 ft | 403 kts | 19° |
| 2026-04-16 23:09 | 25.43259 | -81.37222 | 22110 ft | 403 kts | 19° |
| 2026-04-16 23:10 | 25.45980 | -81.36483 | 22111 ft | 404 kts | 7° |
| 2026-04-16 23:10 | 25.48693 | -81.36477 | 22100 ft | 406 kts | 353° |
| 2026-04-16 23:10 | 25.51425 | -81.37255 | 22104 ft | 407 kts | 339° |
| 2026-04-16 23:10 | 25.53920 | -81.38745 | 22101 ft | 408 kts | 329° |
| 2026-04-16 23:11 | 25.56329 | -81.40403 | 22095 ft | 408 kts | 329° |
| 2026-04-16 23:11 | 25.58711 | -81.42044 | 22093 ft | 409 kts | 329° |
| 2026-04-16 23:11 | 25.61129 | -81.43708 | 22091 ft | 409 kts | 329° |
| 2026-04-16 23:11 | 25.63546 | -81.45370 | 22087 ft | 409 kts | 329° |
| 2026-04-16 23:12 | 25.65960 | -81.47027 | 22094 ft | 409 kts | 329° |
| 2026-04-16 23:12 | 25.68390 | -81.48688 | 22105 ft | 415 kts | 329° |
| 2026-04-16 23:12 | 25.70873 | -81.50382 | 22109 ft | 421 kts | 329° |
| 2026-04-16 23:12 | 25.73371 | -81.52088 | 22111 ft | 423 kts | 329° |
| 2026-04-16 23:13 | 25.75870 | -81.53801 | 22111 ft | 423 kts | 329° |
| 2026-04-16 23:13 | 25.78375 | -81.55525 | 22113 ft | 423 kts | 329° |
| 2026-04-16 23:13 | 25.80870 | -81.57247 | 22111 ft | 423 kts | 329° |
| 2026-04-16 23:13 | 25.83369 | -81.58975 | 22116 ft | 423 kts | 329° |
| 2026-04-16 23:14 | 25.85868 | -81.60702 | 22116 ft | 423 kts | 329° |
| 2026-04-16 23:14 | 25.88462 | -81.62216 | 22117 ft | 422 kts | 339° |
| 2026-04-16 23:14 | 25.91274 | -81.63106 | 22121 ft | 421 kts | 349° |
| 2026-04-16 23:14 | 25.94139 | -81.63771 | 22120 ft | 421 kts | 349° |
| 2026-04-16 23:15 | 25.99857 | -81.65089 | 21785 ft | 416 kts | 349° |
| 2026-04-16 23:15 | 26.02683 | -81.65740 | 21197 ft | 413 kts | 349° |
| 2026-04-16 23:15 | 26.05480 | -81.66392 | 20625 ft | 409 kts | 349° |
| 2026-04-16 23:16 | 26.08254 | -81.67043 | 20084 ft | 406 kts | 349° |
| 2026-04-16 23:16 | 26.11008 | -81.67688 | 19560 ft | 403 kts | 349° |
| 2026-04-16 23:16 | 26.13737 | -81.68324 | 19050 ft | 399 kts | 349° |
| 2026-04-16 23:16 | 26.16441 | -81.68952 | 18557 ft | 396 kts | 349° |
| 2026-04-16 23:17 | 26.19125 | -81.69576 | 17997 ft | 393 kts | 349° |
| 2026-04-16 23:17 | 26.21797 | -81.70199 | 17422 ft | 390 kts | 349° |
| 2026-04-16 23:17 | 26.24401 | -81.70806 | 16890 ft | 386 kts | 349° |
| 2026-04-16 23:17 | 26.27058 | -81.71423 | 16345 ft | 383 kts | 349° |
| 2026-04-16 23:18 | 26.29661 | -81.72029 | 15826 ft | 380 kts | 349° |
| 2026-04-16 23:18 | 26.32208 | -81.72622 | 15302 ft | 378 kts | 349° |
| 2026-04-16 23:18 | 26.34797 | -81.73229 | 14785 ft | 375 kts | 348° |
| 2026-04-16 23:18 | 26.37309 | -81.73821 | 14285 ft | 372 kts | 349° |
| 2026-04-16 23:19 | 26.39834 | -81.74414 | 13766 ft | 369 kts | 348° |
| 2026-04-16 23:19 | 26.42335 | -81.74999 | 13206 ft | 367 kts | 348° |
| 2026-04-16 23:19 | 26.44823 | -81.75583 | 12638 ft | 364 kts | 348° |
| 2026-04-16 23:19 | 26.47288 | -81.76159 | 12079 ft | 361 kts | 348° |
| 2026-04-16 23:20 | 26.49734 | -81.76730 | 11520 ft | 358 kts | 348° |
| 2026-04-16 23:20 | 26.51124 | -81.77045 | 11232 ft | 357 kts | 351° |
| 2026-04-16 23:20 | 26.51810 | -81.77123 | 11160 ft | 352 kts | 5° |
| 2026-04-16 23:20 | 26.52749 | -81.76934 | 11602 ft | 312 kts | 24° |
| 2026-04-16 23:21 | 26.54036 | -81.76294 | 12513 ft | 316 kts | 23° |
| 2026-04-16 23:21 | 26.55170 | -81.75860 | 12109 ft | 333 kts | 12° |
| 2026-04-16 23:21 | 26.55746 | -81.75782 | 11869 ft | 330 kts | 359° |
| 2026-04-16 23:21 | 26.57932 | -81.76184 | 10758 ft | 350 kts | 344° |
| 2026-04-16 23:22 | 26.60259 | -81.76994 | 10672 ft | 353 kts | 343° |
| 2026-04-16 23:22 | 26.62615 | -81.77817 | 10803 ft | 357 kts | 343° |
| 2026-04-16 23:22 | 26.63384 | -81.78086 | 10851 ft | 357 kts | 343° |
| 2026-04-16 23:22 | 26.65955 | -81.78939 | 10964 ft | 358 kts | 347° |
| 2026-04-16 23:23 | 26.68409 | -81.79441 | 11003 ft | 358 kts | 352° |
| 2026-04-16 23:23 | 26.70853 | -81.79730 | 11005 ft | 358 kts | 355° |
| 2026-04-16 23:23 | 26.73339 | -81.79930 | 11007 ft | 358 kts | 356° |
| 2026-04-16 23:23 | 26.75817 | -81.80115 | 11005 ft | 358 kts | 356° |
| 2026-04-16 23:24 | 26.78304 | -81.80327 | 11003 ft | 358 kts | 355° |
| 2026-04-16 23:24 | 26.80778 | -81.80572 | 11013 ft | 358 kts | 354° |
| 2026-04-16 23:24 | 26.83255 | -81.80847 | 11013 ft | 358 kts | 354° |
| 2026-04-16 23:24 | 26.85730 | -81.81141 | 11015 ft | 357 kts | 354° |
| 2026-04-16 23:25 | 26.88202 | -81.81444 | 11014 ft | 358 kts | 354° |
| 2026-04-16 23:25 | 26.90677 | -81.81749 | 11013 ft | 357 kts | 354° |
| 2026-04-16 23:25 | 26.93148 | -81.82052 | 11015 ft | 358 kts | 354° |
| 2026-04-16 23:25 | 26.95620 | -81.82348 | 11014 ft | 357 kts | 354° |
| 2026-04-16 23:26 | 26.98097 | -81.82639 | 11016 ft | 358 kts | 354° |
| 2026-04-16 23:26 | 27.00572 | -81.82927 | 11013 ft | 357 kts | 354° |
| 2026-04-16 23:26 | 27.03041 | -81.83217 | 11008 ft | 357 kts | 354° |
| 2026-04-16 23:26 | 27.05509 | -81.83522 | 11015 ft | 357 kts | 351° |
| 2026-04-16 23:27 | 27.07910 | -81.84213 | 11012 ft | 357 kts | 339° |
| 2026-04-16 23:27 | 27.10121 | -81.85461 | 11013 ft | 357 kts | 327° |
| 2026-04-16 23:27 | 27.12121 | -81.87114 | 11014 ft | 357 kts | 323° |
| 2026-04-16 23:27 | 27.14106 | -81.88794 | 11015 ft | 357 kts | 323° |
| 2026-04-16 23:28 | 27.16092 | -81.90465 | 11012 ft | 357 kts | 323° |
| 2026-04-16 23:28 | 27.18080 | -81.92136 | 11008 ft | 357 kts | 323° |
| 2026-04-16 23:28 | 27.20044 | -81.93789 | 11009 ft | 357 kts | 323° |
| 2026-04-16 23:28 | 27.22053 | -81.95484 | 11010 ft | 357 kts | 323° |
| 2026-04-16 23:29 | 27.24013 | -81.97140 | 11014 ft | 357 kts | 323° |
| 2026-04-16 23:29 | 27.25986 | -81.98813 | 10968 ft | 350 kts | 323° |
| 2026-04-16 23:29 | 27.27847 | -82.00394 | 10846 ft | 320 kts | 323° |
| 2026-04-16 23:29 | 27.29553 | -82.01849 | 10598 ft | 300 kts | 323° |
| 2026-04-16 23:30 | 27.31193 | -82.03247 | 10081 ft | 292 kts | 323° |
| 2026-04-16 23:30 | 27.32803 | -82.04618 | 9426 ft | 289 kts | 323° |
| 2026-04-16 23:30 | 27.34399 | -82.05976 | 8727 ft | 287 kts | 323° |
| 2026-04-16 23:30 | 27.35988 | -82.07326 | 8027 ft | 286 kts | 323° |
| 2026-04-16 23:31 | 27.37566 | -82.08677 | 7344 ft | 285 kts | 323° |
| 2026-04-16 23:31 | 27.39111 | -82.10073 | 6666 ft | 284 kts | 321° |
| 2026-04-16 23:31 | 27.40640 | -82.11498 | 6204 ft | 285 kts | 321° |
| 2026-04-16 23:31 | 27.42155 | -82.12924 | 5806 ft | 282 kts | 321° |
| 2026-04-16 23:32 | 27.43654 | -82.14334 | 5425 ft | 280 kts | 321° |
| 2026-04-16 23:32 | 27.45114 | -82.15769 | 5035 ft | 278 kts | 318° |
| 2026-04-16 23:32 | 27.46508 | -82.17264 | 4625 ft | 276 kts | 317° |
| 2026-04-16 23:32 | 27.47869 | -82.18775 | 4226 ft | 274 kts | 317° |
| 2026-04-16 23:33 | 27.49217 | -82.20283 | 4008 ft | 273 kts | 316° |
| 2026-04-16 23:33 | 27.50568 | -82.21787 | 4018 ft | 274 kts | 317° |
| 2026-04-16 23:33 | 27.51928 | -82.23288 | 4017 ft | 275 kts | 317° |
| 2026-04-16 23:33 | 27.53300 | -82.24792 | 4020 ft | 275 kts | 317° |
| 2026-04-16 23:34 | 27.54489 | -82.26472 | 4018 ft | 276 kts | 298° |
| 2026-04-16 23:34 | 27.55022 | -82.28538 | 4018 ft | 277 kts | 274° |
| 2026-04-16 23:34 | 27.54834 | -82.30691 | 4021 ft | 277 kts | 259° |
| 2026-04-16 23:34 | 27.54688 | -82.32829 | 4020 ft | 277 kts | 274° |
| 2026-04-16 23:35 | 27.54925 | -82.35010 | 4024 ft | 278 kts | 278° |
| 2026-04-16 23:35 | 27.55192 | -82.37170 | 4025 ft | 278 kts | 278° |
| 2026-04-16 23:35 | 27.55469 | -82.39292 | 4023 ft | 278 kts | 279° |
| 2026-04-16 23:35 | 27.55758 | -82.41452 | 4023 ft | 278 kts | 279° |
| 2026-04-16 23:36 | 27.56048 | -82.43604 | 4023 ft | 278 kts | 278° |
| 2026-04-16 23:36 | 27.56338 | -82.45761 | 4024 ft | 279 kts | 279° |
| 2026-04-16 23:36 | 27.56626 | -82.47919 | 4024 ft | 278 kts | 278° |
| 2026-04-16 23:36 | 27.56915 | -82.50082 | 4026 ft | 279 kts | 279° |
| 2026-04-16 23:37 | 27.57204 | -82.52240 | 4025 ft | 279 kts | 279° |
| 2026-04-16 23:37 | 27.57489 | -82.54401 | 4023 ft | 279 kts | 279° |
| 2026-04-16 23:37 | 27.57775 | -82.56565 | 4023 ft | 279 kts | 279° |
| 2026-04-16 23:37 | 27.58058 | -82.58697 | 4010 ft | 271 kts | 278° |
| 2026-04-16 23:38 | 27.58337 | -82.60790 | 4012 ft | 270 kts | 279° |
| 2026-04-16 23:38 | 27.58521 | -82.62176 | 4011 ft | 270 kts | 279° |
| 2026-04-16 23:38 | 27.58799 | -82.64265 | 3992 ft | 269 kts | 280° |
| 2026-04-16 23:38 | 27.59418 | -82.66205 | 3685 ft | 258 kts | 307° |
| 2026-04-16 23:39 | 27.60700 | -82.67474 | 3391 ft | 239 kts | 338° |
| 2026-04-16 23:39 | 27.62787 | -82.67885 | 2735 ft | 229 kts | 1° |
| 2026-04-16 23:39 | 27.64360 | -82.67736 | 2198 ft | 225 kts | 11° |
| 2026-04-16 23:39 | 27.65390 | -82.67510 | 2044 ft | 221 kts | 13° |
| 2026-04-16 23:40 | 27.66875 | -82.67135 | 2003 ft | 217 kts | 13° |
| 2026-04-16 23:40 | 27.68342 | -82.66751 | 2003 ft | 216 kts | 14° |
| 2026-04-16 23:40 | 27.69806 | -82.66370 | 2004 ft | 215 kts | 14° |
| 2026-04-16 23:40 | 27.71249 | -82.65996 | 2010 ft | 216 kts | 14° |
| 2026-04-16 23:41 | 27.72719 | -82.65694 | 1998 ft | 211 kts | 359° |
| 2026-04-16 23:41 | 27.74128 | -82.65912 | 2032 ft | 199 kts | 352° |
| 2026-04-16 23:41 | 27.75416 | -82.66154 | 1992 ft | 177 kts | 352° |
| 2026-04-16 23:41 | 27.76604 | -82.66364 | 2004 ft | 169 kts | 352° |
| 2026-04-16 23:42 | 27.77758 | -82.66563 | 2007 ft | 167 kts | 353° |
| 2026-04-16 23:42 | 27.78897 | -82.66759 | 2006 ft | 166 kts | 352° |
| 2026-04-16 23:42 | 27.80002 | -82.66949 | 1887 ft | 154 kts | 352° |
| 2026-04-16 23:42 | 27.81011 | -82.67123 | 1730 ft | 140 kts | 351° |
| 2026-04-16 23:43 | 27.81956 | -82.67285 | 1562 ft | 135 kts | 351° |
| 2026-04-16 23:43 | 27.82882 | -82.67443 | 1379 ft | 133 kts | 352° |
| 2026-04-16 23:43 | 27.83786 | -82.67596 | 1257 ft | 131 kts | 352° |
| 2026-04-16 23:43 | 27.84695 | -82.67727 | 1053 ft | 131 kts | 351° |
| 2026-04-16 23:44 | 27.85587 | -82.67892 | 863 ft | 128 kts | 348° |
| 2026-04-16 23:44 | 27.86267 | -82.68008 | 745 ft | 128 kts | 348° |
| 2026-04-16 23:44 | 27.86761 | -82.68106 | 722 ft | 125 kts | 348° |
| 2026-04-16 23:44 | 27.87629 | -82.68245 | 519 ft | 125 kts | 349° |
| 2026-04-16 23:45 | 27.88499 | -82.68403 | 359 ft | 127 kts | 348° |
| 2026-04-16 23:45 | 27.89377 | -82.68558 | 164 ft | 128 kts | 347° |
| 2026-04-16 23:45 | 27.90245 | -82.68712 | 29 ft | 123 kts | 347° |
| 2026-04-16 23:45 | 27.90901 | -82.68825 | 18 ft | 84 kts | 351° |
| 2026-04-16 23:46 | 27.91225 | -82.68888 | 15 ft | 10 kts | 313° |
| 2026-04-16 23:46 | 27.91227 | -82.68961 | 16 ft | 15 kts | 263° |
| 2026-04-16 23:46 | 27.91162 | -82.69023 | 17 ft | 13 kts | 187° |
| 2026-04-16 23:46 | 27.91075 | -82.69010 | 16 ft | 12 kts | 172° |
| 2026-04-16 23:47 | 27.90995 | -82.68997 | 18 ft | 10 kts | 171° |
| 2026-04-16 23:47 | 27.90917 | -82.68984 | 19 ft | 11 kts | 172° |
| 2026-04-16 23:47 | 27.90845 | -82.68992 | 21 ft | 12 kts | 238° |
| 2026-04-16 23:47 | 27.90806 | -82.68999 | 21 ft | 8 kts | 150° |
| 2026-04-16 23:48 | 27.90726 | -82.68966 | 20 ft | 9 kts | 213° |
| 2026-04-16 23:48 | 27.90702 | -82.69010 | 20 ft | 3 kts | 243° |
| 2026-04-16 23:48 | 27.90696 | -82.69023 | 20 ft | 2 kts | 242° |